Time;durP1;ratioP1;P1;durP2;ratioP2;P2;SDS_P1;SDS_P2;PMS_P1;PMS_P2;Temp;Humidity;BMP_temperature;BMP_pressure;BME280_temperature;BME280_humidity;BME280_pressure;Samples;Min_cycle;Max_cycle;Signal;HPM_P1;HPM_P2
2023/12/14 00:01:42;;;;;;;24.47;16.40;;;;;;;;;;2613353;46;20446;-74
2023/12/14 00:04:08;;;;;;;31.80;17.60;;;;;;;;;;2613208;54;20459;-74
2023/12/14 00:06:34;;;;;;;32.80;19.30;;;;;;;;;;2612265;39;20842;-73
2023/12/14 00:09:00;;;;;;;30.33;18.20;;;;;;;;;;2614316;39;20778;-73
2023/12/14 00:11:26;;;;;;;33.97;18.30;;;;;;;;;;2612584;54;20406;-74
2023/12/14 00:13:52;;;;;;;31.70;18.20;;;;;;;;;;2613010;54;20465;-74
2023/12/14 00:16:18;;;;;;;32.10;19.80;;;;;;;;;;2613747;54;20406;-73
2023/12/14 00:18:44;;;;;;;28.03;15.97;;;;;;;;;;2612683;54;20398;-74
2023/12/14 00:21:10;;;;;;;31.10;16.50;;;;;;;;;;2612764;54;20429;-73
2023/12/14 00:23:36;;;;;;;24.73;15.67;;;;;;;;;;2613973;47;20429;-74
2023/12/14 00:26:03;;;;;;;26.23;14.43;;;;;;;;;;2612874;54;20438;-73
2023/12/14 00:28:29;;;;;;;24.10;15.30;;;;;;;;;;2613588;54;20413;-74
2023/12/14 00:30:55;;;;;;;24.73;14.30;;;;;;;;;;2613700;54;20417;-73
2023/12/14 00:33:21;;;;;;;26.47;15.17;;;;;;;;;;2614401;54;20461;-73
2023/12/14 00:35:50;;;;;;;24.10;15.63;;;;;;;;;;2613709;54;20497;-74
2023/12/14 00:38:16;;;;;;;20.13;14.77;;;;;;;;;;2616014;39;20769;-86
2023/12/14 00:40:42;;;;;;;24.33;14.50;;;;;;;;;;2615356;54;20458;-84
2023/12/14 00:43:08;;;;;;;21.53;13.60;;;;;;;;;;2614507;54;20418;-84
2023/12/14 00:45:34;;;;;;;24.00;14.00;;;;;;;;;;2613445;54;20423;-84
2023/12/14 00:48:01;;;;;;;20.13;14.30;;;;;;;;;;2614111;54;20403;-85
2023/12/14 00:50:27;;;;;;;23.13;12.33;;;;;;;;;;2614396;54;20392;-87
2023/12/14 00:52:53;;;;;;;19.57;11.70;;;;;;;;;;2615261;46;20423;-85
2023/12/14 00:55:19;;;;;;;19.80;12.70;;;;;;;;;;2614484;54;20438;-84
2023/12/14 00:57:45;;;;;;;13.97;10.30;;;;;;;;;;2613646;54;20408;-72
2023/12/14 01:00:12;;;;;;;16.40;10.50;;;;;;;;;;2612508;51;20486;-72
2023/12/14 01:02:38;;;;;;;12.17;8.57;;;;;;;;;;2611981;54;20438;-71
2023/12/14 01:05:04;;;;;;;12.57;8.30;;;;;;;;;;2613153;54;20402;-72
2023/12/14 01:07:30;;;;;;;19.23;9.67;;;;;;;;;;2613297;54;20425;-70
2023/12/14 01:09:56;;;;;;;11.80;7.90;;;;;;;;;;2613630;46;20934;-72
2023/12/14 01:12:23;;;;;;;16.30;9.03;;;;;;;;;;2611511;54;20437;-72
2023/12/14 01:14:49;;;;;;;14.30;9.67;;;;;;;;;;2611665;47;20466;-72
2023/12/14 01:17:15;;;;;;;10.37;8.30;;;;;;;;;;2613289;54;20428;-72
2023/12/14 01:19:41;;;;;;;13.33;9.13;;;;;;;;;;2612491;54;20550;-72
2023/12/14 01:22:07;;;;;;;13.07;8.60;;;;;;;;;;2613107;54;20499;-71
2023/12/14 01:24:33;;;;;;;13.97;7.93;;;;;;;;;;2613443;39;20785;-72
2023/12/14 01:26:59;;;;;;;13.87;9.40;;;;;;;;;;2612940;54;20422;-72
2023/12/14 01:29:25;;;;;;;11.87;8.00;;;;;;;;;;2612341;47;20475;-71
2023/12/14 01:31:51;;;;;;;12.93;9.30;;;;;;;;;;2612893;47;20415;-72
2023/12/14 01:34:17;;;;;;;13.07;8.50;;;;;;;;;;2612710;54;20438;-72
2023/12/14 01:36:43;;;;;;;15.00;9.13;;;;;;;;;;2613409;47;20954;-72
2023/12/14 01:39:09;;;;;;;14.07;8.77;;;;;;;;;;2613525;54;20422;-72
2023/12/14 01:41:35;;;;;;;11.90;8.67;;;;;;;;;;2610635;54;20425;-73
2023/12/14 01:44:02;;;;;;;14.23;9.63;;;;;;;;;;2610154;54;20534;-72
2023/12/14 01:46:28;;;;;;;13.80;8.93;;;;;;;;;;2610130;54;20459;-73
2023/12/14 01:48:54;;;;;;;11.90;8.50;;;;;;;;;;2610240;54;20379;-73
2023/12/14 01:51:20;;;;;;;14.00;9.20;;;;;;;;;;2609499;54;20434;-74
2023/12/14 01:53:46;;;;;;;13.27;8.93;;;;;;;;;;2610385;54;20423;-74
2023/12/14 01:56:12;;;;;;;15.70;9.50;;;;;;;;;;2609820;54;20467;-75
2023/12/14 01:58:38;;;;;;;15.23;9.53;;;;;;;;;;2610414;51;20408;-74
2023/12/14 02:01:10;;;;;;;15.33;10.27;;;;;;;;;;2609620;47;20443;-74
2023/12/14 02:03:36;;;;;;;12.80;9.27;;;;;;;;;;2609958;54;20409;-74
2023/12/14 02:06:02;;;;;;;14.37;8.97;;;;;;;;;;2610765;54;20480;-80
2023/12/14 02:08:29;;;;;;;12.40;8.23;;;;;;;;;;2613370;54;20807;-79
2023/12/14 02:10:55;;;;;;;14.50;10.27;;;;;;;;;;2610326;54;20549;-79
2023/12/14 02:13:21;;;;;;;16.13;11.40;;;;;;;;;;2610333;46;20402;-80
2023/12/14 02:15:47;;;;;;;15.40;11.93;;;;;;;;;;2611844;54;20413;-80
2023/12/14 02:18:13;;;;;;;22.13;12.90;;;;;;;;;;2611576;54;20553;-80
2023/12/14 02:20:39;;;;;;;18.93;12.73;;;;;;;;;;2610839;54;20452;-81
2023/12/14 02:23:05;;;;;;;22.90;13.60;;;;;;;;;;2611108;39;20481;-80
2023/12/14 02:25:31;;;;;;;21.50;15.37;;;;;;;;;;2611230;54;20454;-80
2023/12/14 02:27:57;;;;;;;19.30;13.00;;;;;;;;;;2611658;54;20406;-80
2023/12/14 02:30:23;;;;;;;24.07;15.47;;;;;;;;;;2610358;47;20962;-81
2023/12/14 02:32:49;;;;;;;20.63;14.40;;;;;;;;;;2613254;54;20430;-79
2023/12/14 02:35:18;;;;;;;23.67;16.20;;;;;;;;;;2611311;54;20596;-81
2023/12/14 02:37:45;;;;;;;30.33;15.87;;;;;;;;;;2611320;54;20480;-81
2023/12/14 02:40:11;;;;;;;22.23;13.30;;;;;;;;;;2613068;47;20518;-81
2023/12/14 02:42:37;;;;;;;22.87;14.00;;;;;;;;;;2614150;39;20739;-82
2023/12/14 02:45:05;;;;;;;24.53;14.20;;;;;;;;;;2613607;39;20799;-81
2023/12/14 02:47:31;;;;;;;29.33;17.07;;;;;;;;;;2614125;54;20433;-81
2023/12/14 02:49:57;;;;;;;25.37;14.50;;;;;;;;;;2613907;54;20501;-80
2023/12/14 02:52:23;;;;;;;28.30;15.00;;;;;;;;;;2613901;54;20947;-81
2023/12/14 02:54:49;;;;;;;25.43;15.20;;;;;;;;;;2612777;54;20432;-81
2023/12/14 02:57:15;;;;;;;25.63;15.40;;;;;;;;;;2609951;54;20885;-72
2023/12/14 02:59:41;;;;;;;27.90;17.00;;;;;;;;;;2609793;54;20966;-71
2023/12/14 03:02:07;;;;;;;22.00;16.13;;;;;;;;;;2610425;54;22131;-72
2023/12/14 03:04:33;;;;;;;22.50;13.90;;;;;;;;;;2609939;54;20437;-72
2023/12/14 03:07:02;;;;;;;24.13;15.70;;;;;;;;;;2610588;54;20397;-72
2023/12/14 03:09:28;;;;;;;23.37;14.07;;;;;;;;;;2609493;54;20433;-72
2023/12/14 03:11:54;;;;;;;30.43;15.20;;;;;;;;;;2609748;47;20433;-73
2023/12/14 03:14:20;;;;;;;24.60;14.33;;;;;;;;;;2610781;54;20414;-73
2023/12/14 03:16:48;;;;;;;27.27;15.30;;;;;;;;;;2611430;54;20445;-75
2023/12/14 03:19:14;;;;;;;23.47;15.10;;;;;;;;;;2609440;47;20418;-75
2023/12/14 03:21:40;;;;;;;24.30;14.67;;;;;;;;;;2609865;39;20940;-74
2023/12/14 03:24:06;;;;;;;28.80;15.20;;;;;;;;;;2610353;54;20425;-74
2023/12/14 03:26:32;;;;;;;26.80;16.10;;;;;;;;;;2610459;54;20470;-75
2023/12/14 03:28:58;;;;;;;25.53;15.57;;;;;;;;;;2611179;54;20504;-75
2023/12/14 03:31:24;;;;;;;28.10;14.60;;;;;;;;;;2609482;54;20380;-75
2023/12/14 03:33:50;;;;;;;23.70;15.43;;;;;;;;;;2609591;54;20419;-75
2023/12/14 03:36:16;;;;;;;23.33;14.70;;;;;;;;;;2609724;54;20459;-74
2023/12/14 03:38:42;;;;;;;30.13;16.03;;;;;;;;;;2610225;54;20408;-75
2023/12/14 03:41:08;;;;;;;23.87;15.03;;;;;;;;;;2611201;47;20458;-74
2023/12/14 03:43:34;;;;;;;28.87;16.33;;;;;;;;;;2610242;47;20430;-74
2023/12/14 03:46:00;;;;;;;21.60;13.80;;;;;;;;;;2609586;47;20528;-74
2023/12/14 03:48:26;;;;;;;22.70;14.40;;;;;;;;;;2611252;54;20429;-73
2023/12/14 03:50:52;;;;;;;22.87;13.47;;;;;;;;;;2611127;54;20402;-74
2023/12/14 03:53:18;;;;;;;24.37;14.97;;;;;;;;;;2612248;54;20402;-75
2023/12/14 03:55:44;;;;;;;26.43;15.03;;;;;;;;;;2611949;54;20393;-76
2023/12/14 03:58:11;;;;;;;23.73;13.20;;;;;;;;;;2610526;54;20385;-74
2023/12/14 04:00:37;;;;;;;20.17;13.20;;;;;;;;;;2609467;54;20442;-74
2023/12/14 04:03:03;;;;;;;19.67;11.80;;;;;;;;;;2609439;54;20961;-74
2023/12/14 04:05:29;;;;;;;17.63;11.37;;;;;;;;;;2609814;39;20804;-74
2023/12/14 04:07:55;;;;;;;16.00;10.87;;;;;;;;;;2609591;54;20413;-73
2023/12/14 04:10:21;;;;;;;21.23;12.17;;;;;;;;;;2609662;54;20401;-74
2023/12/14 04:12:47;;;;;;;17.63;11.90;;;;;;;;;;2609252;54;20420;-74
2023/12/14 04:15:13;;;;;;;17.00;10.93;;;;;;;;;;2610284;54;21007;-74
2023/12/14 04:17:39;;;;;;;19.53;11.30;;;;;;;;;;2609966;54;20545;-74
2023/12/14 04:20:06;;;;;;;20.60;11.43;;;;;;;;;;2609778;46;20470;-75
2023/12/14 04:22:32;;;;;;;19.17;11.53;;;;;;;;;;2609905;54;20447;-74
2023/12/14 04:24:58;;;;;;;18.80;12.53;;;;;;;;;;2610700;39;20830;-74
2023/12/14 04:27:28;;;;;;;22.53;12.10;;;;;;;;;;2612942;54;20469;-86
2023/12/14 04:29:55;;;;;;;18.93;11.83;;;;;;;;;;2615012;47;20439;-86
2023/12/14 04:32:21;;;;;;;17.37;11.63;;;;;;;;;;2615407;54;20436;-86
2023/12/14 04:34:47;;;;;;;19.50;13.27;;;;;;;;;;2615791;39;20809;-85
2023/12/14 04:37:13;;;;;;;22.53;12.60;;;;;;;;;;2614746;54;20425;-85
2023/12/14 04:39:39;;;;;;;20.10;12.23;;;;;;;;;;2615933;54;20428;-86
2023/12/14 04:42:05;;;;;;;22.47;12.40;;;;;;;;;;2616393;54;20874;-86
2023/12/14 04:44:31;;;;;;;18.10;11.23;;;;;;;;;;2616941;54;20383;-86
2023/12/14 04:46:57;;;;;;;20.13;12.17;;;;;;;;;;2620247;54;20938;-87
2023/12/14 04:49:23;;;;;;;17.90;10.70;;;;;;;;;;2617006;54;20439;-86
2023/12/14 04:51:49;;;;;;;21.07;12.17;;;;;;;;;;2617987;54;20422;-87
2023/12/14 04:54:15;;;;;;;17.80;10.63;;;;;;;;;;2620691;54;20423;-86
2023/12/14 04:56:44;;;;;;;17.30;11.73;;;;;;;;;;2620287;46;20432;-84
2023/12/14 04:59:10;;;;;;;17.43;10.97;;;;;;;;;;2619608;54;20463;-85
2023/12/14 05:01:36;;;;;;;20.90;11.40;;;;;;;;;;2618910;39;20780;-86
2023/12/14 05:04:02;;;;;;;21.10;11.37;;;;;;;;;;2619864;54;20435;-85
2023/12/14 05:06:28;;;;;;;20.50;11.90;;;;;;;;;;2617603;54;20432;-87
2023/12/14 05:08:55;;;;;;;19.97;11.40;;;;;;;;;;2619379;39;20947;-86
2023/12/14 05:11:22;;;;;;;15.57;10.07;;;;;;;;;;2619516;54;20995;-86
2023/12/14 05:13:48;;;;;;;16.30;10.83;;;;;;;;;;2618788;54;20459;-86
2023/12/14 05:16:14;;;;;;;19.13;10.97;;;;;;;;;;2617917;39;20815;-74
2023/12/14 05:18:40;;;;;;;15.53;9.70;;;;;;;;;;2612187;39;20847;-74
2023/12/14 05:21:07;;;;;;;18.93;11.03;;;;;;;;;;2610383;54;20414;-73
2023/12/14 05:23:33;;;;;;;18.53;10.50;;;;;;;;;;2610412;54;20426;-74
2023/12/14 05:25:59;;;;;;;16.63;10.30;;;;;;;;;;2610521;54;21072;-74
2023/12/14 05:28:25;;;;;;;16.13;11.03;;;;;;;;;;2609853;54;20407;-74
2023/12/14 05:30:51;;;;;;;13.90;9.50;;;;;;;;;;2610160;39;21605;-74
2023/12/14 05:33:17;;;;;;;18.80;11.10;;;;;;;;;;2610680;39;20902;-74
2023/12/14 05:35:43;;;;;;;15.53;10.67;;;;;;;;;;2610354;54;20456;-74
2023/12/14 05:38:09;;;;;;;17.47;11.20;;;;;;;;;;2613681;47;20427;-84
2023/12/14 05:40:35;;;;;;;16.03;9.27;;;;;;;;;;2612670;54;20435;-85
2023/12/14 05:43:01;;;;;;;18.53;11.70;;;;;;;;;;2612772;39;21131;-85
2023/12/14 05:45:28;;;;;;;18.40;11.10;;;;;;;;;;2614008;54;20418;-85
2023/12/14 05:47:54;;;;;;;16.60;10.50;;;;;;;;;;2613317;39;20503;-83
2023/12/14 05:50:21;;;;;;;15.27;10.30;;;;;;;;;;2614555;54;21153;-84
2023/12/14 05:52:47;;;;;;;19.20;11.10;;;;;;;;;;2613300;54;20454;-84
2023/12/14 05:55:14;;;;;;;14.87;9.43;;;;;;;;;;2612681;54;20412;-85
2023/12/14 05:57:40;;;;;;;17.90;9.20;;;;;;;;;;2612213;54;20397;-84
2023/12/14 06:00:07;;;;;;;18.23;9.93;;;;;;;;;;2613356;54;20385;-83
2023/12/14 06:02:33;;;;;;;20.30;11.37;;;;;;;;;;2613093;54;20393;-84
2023/12/14 06:04:59;;;;;;;20.77;11.87;;;;;;;;;;2614599;46;20422;-84
2023/12/14 06:07:25;;;;;;;16.97;11.17;;;;;;;;;;2615169;39;20778;-84
2023/12/14 06:09:51;;;;;;;22.43;12.27;;;;;;;;;;2614853;54;20418;-84
2023/12/14 06:12:17;;;;;;;20.23;11.90;;;;;;;;;;2612650;31;20880;-84
2023/12/14 06:14:44;;;;;;;26.13;14.50;;;;;;;;;;2612446;47;20464;-85
2023/12/14 06:17:10;;;;;;;19.47;12.43;;;;;;;;;;2612721;54;20475;-85
2023/12/14 06:19:36;;;;;;;19.47;11.80;;;;;;;;;;2612397;54;20442;-85
2023/12/14 06:22:02;;;;;;;23.87;13.83;;;;;;;;;;2612068;54;20531;-84
2023/12/14 06:24:28;;;;;;;26.30;13.50;;;;;;;;;;2613158;54;20451;-83
2023/12/14 06:26:54;;;;;;;26.80;15.70;;;;;;;;;;2613070;54;20578;-82
2023/12/14 06:29:21;;;;;;;22.37;14.37;;;;;;;;;;2611483;54;20473;-81
2023/12/14 06:31:47;;;;;;;28.20;14.53;;;;;;;;;;2610338;47;20429;-79
2023/12/14 06:34:13;;;;;;;22.53;14.50;;;;;;;;;;2610817;54;20404;-81
2023/12/14 06:36:42;;;;;;;31.50;14.97;;;;;;;;;;2611424;54;20792;-81
2023/12/14 06:39:08;;;;;;;21.70;14.20;;;;;;;;;;2613391;54;20448;-80
2023/12/14 06:41:34;;;;;;;29.43;14.73;;;;;;;;;;2611307;54;20483;-81
2023/12/14 06:44:00;;;;;;;24.90;14.97;;;;;;;;;;2612626;54;20560;-80
2023/12/14 06:46:26;;;;;;;27.47;14.20;;;;;;;;;;2612531;54;20435;-72
2023/12/14 06:48:53;;;;;;;26.77;14.80;;;;;;;;;;2612444;54;20407;-71
2023/12/14 06:51:20;;;;;;;24.43;15.27;;;;;;;;;;2609635;54;20401;-72
2023/12/14 06:53:47;;;;;;;22.70;14.50;;;;;;;;;;2611815;39;20859;-73
2023/12/14 06:56:13;;;;;;;23.67;14.40;;;;;;;;;;2611340;47;20402;-73
2023/12/14 06:58:40;;;;;;;24.47;14.50;;;;;;;;;;2609439;47;20456;-72
2023/12/14 07:01:06;;;;;;;26.53;14.33;;;;;;;;;;2608738;54;20459;-72
2023/12/14 07:03:32;;;;;;;28.43;13.63;;;;;;;;;;2609714;54;20420;-72
2023/12/14 07:05:58;;;;;;;21.43;15.43;;;;;;;;;;2608991;54;20427;-72
2023/12/14 07:08:25;;;;;;;18.10;12.07;;;;;;;;;;2610234;39;20483;-72
2023/12/14 07:10:51;;;;;;;21.97;13.60;;;;;;;;;;2611088;39;20807;-73
2023/12/14 07:13:17;;;;;;;22.40;13.27;;;;;;;;;;2610487;54;20404;-72
2023/12/14 07:15:43;;;;;;;20.93;12.77;;;;;;;;;;2609570;47;20479;-72
2023/12/14 07:18:09;;;;;;;21.70;13.03;;;;;;;;;;2608914;54;20442;-72
2023/12/14 07:20:35;;;;;;;24.30;13.40;;;;;;;;;;2611475;54;20447;-71
2023/12/14 07:23:01;;;;;;;19.57;13.70;;;;;;;;;;2611807;54;20416;-72
2023/12/14 07:25:27;;;;;;;19.30;13.57;;;;;;;;;;2610801;54;20475;-71
2023/12/14 07:27:53;;;;;;;24.20;15.10;;;;;;;;;;2611957;54;20399;-72
2023/12/14 07:30:19;;;;;;;25.70;13.60;;;;;;;;;;2612411;54;20427;-72
2023/12/14 07:32:45;;;;;;;20.37;12.93;;;;;;;;;;2611709;54;20423;-71
2023/12/14 07:35:11;;;;;;;20.87;12.80;;;;;;;;;;2612366;54;20474;-71
2023/12/14 07:37:37;;;;;;;21.47;13.50;;;;;;;;;;2611898;54;20428;-71
2023/12/14 07:40:03;;;;;;;18.83;13.00;;;;;;;;;;2611714;54;20421;-71
2023/12/14 07:42:30;;;;;;;21.23;13.63;;;;;;;;;;2612833;39;20808;-71
2023/12/14 07:44:56;;;;;;;21.93;12.47;;;;;;;;;;2610518;54;20416;-71
2023/12/14 07:47:21;;;;;;;23.80;14.70;;;;;;;;;;2609201;39;20940;-71
2023/12/14 07:49:48;;;;;;;25.50;17.17;;;;;;;;;;2610045;54;20442;-71
2023/12/14 07:52:14;;;;;;;21.80;14.80;;;;;;;;;;2610759;54;20428;-71
2023/12/14 07:54:40;;;;;;;31.20;16.47;;;;;;;;;;2611672;54;20418;-71
2023/12/14 07:57:06;;;;;;;23.90;15.83;;;;;;;;;;2612629;54;20404;-81
2023/12/14 07:59:32;;;;;;;31.30;16.63;;;;;;;;;;2612502;54;20396;-80
2023/12/14 08:01:58;;;;;;;26.10;15.97;;;;;;;;;;2612548;54;20423;-81
2023/12/14 08:04:24;;;;;;;24.43;15.33;;;;;;;;;;2613317;54;20511;-80
2023/12/14 08:06:51;;;;;;;23.93;14.70;;;;;;;;;;2613756;39;20876;-79
2023/12/14 08:09:17;;;;;;;26.23;15.07;;;;;;;;;;2614404;39;20795;-79
2023/12/14 08:11:43;;;;;;;22.50;14.23;;;;;;;;;;2611524;54;20447;-81
2023/12/14 08:14:09;;;;;;;20.40;14.13;;;;;;;;;;2612928;54;20421;-81
2023/12/14 08:16:35;;;;;;;29.27;17.20;;;;;;;;;;2612695;54;20556;-81
2023/12/14 08:19:01;;;;;;;25.57;15.60;;;;;;;;;;2613227;54;20979;-81
2023/12/14 08:21:27;;;;;;;24.20;14.67;;;;;;;;;;2614349;47;20446;-81
2023/12/14 08:23:53;;;;;;;20.10;13.03;;;;;;;;;;2614272;39;20852;-81
2023/12/14 08:26:19;;;;;;;21.70;14.10;;;;;;;;;;2613875;54;20429;-82
2023/12/14 08:28:45;;;;;;;25.10;14.23;;;;;;;;;;2613658;54;20460;-81
2023/12/14 08:31:11;;;;;;;24.23;16.00;;;;;;;;;;2613827;39;20918;-81
2023/12/14 08:33:38;;;;;;;28.97;16.70;;;;;;;;;;2614051;54;20482;-81
2023/12/14 08:36:05;;;;;;;29.00;17.03;;;;;;;;;;2613937;54;20565;-82
2023/12/14 08:38:31;;;;;;;31.10;15.63;;;;;;;;;;2614631;54;20438;-81
2023/12/14 08:40:57;;;;;;;28.70;19.00;;;;;;;;;;2614459;54;20862;-81
2023/12/14 08:43:23;;;;;;;29.33;17.50;;;;;;;;;;2614763;54;20432;-83
2023/12/14 08:45:49;;;;;;;38.47;19.17;;;;;;;;;;2614991;47;21090;-71
2023/12/14 08:48:15;;;;;;;30.50;16.73;;;;;;;;;;2613116;54;21030;-71
2023/12/14 08:50:41;;;;;;;28.07;19.37;;;;;;;;;;2613090;54;20418;-70
2023/12/14 08:53:08;;;;;;;31.63;16.60;;;;;;;;;;2611927;54;20435;-70
2023/12/14 08:55:34;;;;;;;37.40;20.87;;;;;;;;;;2611943;39;20811;-71
2023/12/14 08:58:00;;;;;;;33.47;19.43;;;;;;;;;;2611916;54;20428;-71
2023/12/14 09:00:26;;;;;;;30.80;18.90;;;;;;;;;;2612832;54;20507;-70
2023/12/14 09:02:52;;;;;;;35.37;18.77;;;;;;;;;;2611107;54;20509;-70
2023/12/14 09:05:20;;;;;;;26.77;17.20;;;;;;;;;;2612048;47;20428;-71
2023/12/14 09:07:46;;;;;;;31.07;18.23;;;;;;;;;;2612881;54;20581;-76
2023/12/14 09:10:12;;;;;;;27.83;17.70;;;;;;;;;;2613530;47;20440;-78
2023/12/14 09:12:38;;;;;;;28.03;17.60;;;;;;;;;;2612718;54;20417;-78
2023/12/14 09:15:04;;;;;;;39.37;17.87;;;;;;;;;;2613806;54;20419;-77
2023/12/14 09:17:33;;;;;;;32.10;17.80;;;;;;;;;;2613287;47;20467;-78
2023/12/14 09:20:00;;;;;;;28.90;17.30;;;;;;;;;;2613199;54;20438;-78
2023/12/14 09:22:26;;;;;;;35.93;18.90;;;;;;;;;;2613031;54;20421;-79
2023/12/14 09:24:53;;;;;;;34.47;18.63;;;;;;;;;;2612992;46;20526;-78
2023/12/14 09:27:19;;;;;;;31.97;19.07;;;;;;;;;;2611476;47;20425;-78
2023/12/14 09:29:45;;;;;;;28.60;17.87;;;;;;;;;;2611011;47;20406;-77
2023/12/14 09:32:11;;;;;;;29.67;16.77;;;;;;;;;;2611994;54;20519;-79
2023/12/14 09:34:37;;;;;;;36.60;19.33;;;;;;;;;;2610493;54;20542;-78
2023/12/14 09:37:03;;;;;;;33.17;19.50;;;;;;;;;;2610634;54;20425;-77
2023/12/14 09:39:29;;;;;;;25.87;16.33;;;;;;;;;;2610348;54;20476;-78
2023/12/14 09:42:06;;;;;;;30.83;18.90;;;;;;;;;;2613556;54;20438;-78
2023/12/14 09:44:32;;;;;;;34.93;18.40;;;;;;;;;;2612045;54;20411;-77
2023/12/14 09:47:02;;;;;;;28.80;18.20;;;;;;;;;;2613097;54;20425;-77
2023/12/14 09:49:30;;;;;;;30.70;18.40;;;;;;;;;;2612874;54;20446;-78
2023/12/14 09:51:59;;;;;;;33.87;17.27;;;;;;;;;;2613408;54;20399;-78
2023/12/14 09:54:28;;;;;;;26.27;16.43;;;;;;;;;;2613087;54;20415;-78
2023/12/14 09:56:55;;;;;;;28.23;16.23;;;;;;;;;;2611952;54;20435;-71
2023/12/14 09:59:21;;;;;;;33.53;17.27;;;;;;;;;;2611216;54;20420;-70
2023/12/14 10:01:47;;;;;;;32.63;17.50;;;;;;;;;;2608703;54;20440;-71
2023/12/14 10:04:14;;;;;;;26.67;17.33;;;;;;;;;;2612919;54;20501;-71
2023/12/14 10:06:42;;;;;;;28.30;17.27;;;;;;;;;;2609557;54;20507;-72
2023/12/14 10:09:18;;;;;;;30.10;17.90;;;;;;;;;;2609560;54;21401;-70
2023/12/14 10:11:45;;;;;;;27.93;15.17;;;;;;;;;;2609765;54;20480;-71
2023/12/14 10:14:21;;;;;;;29.80;16.57;;;;;;;;;;2610716;46;20420;-71
2023/12/14 10:16:47;;;;;;;25.70;16.57;;;;;;;;;;2612867;54;20439;-78
2023/12/14 10:19:13;;;;;;;25.37;14.63;;;;;;;;;;2611663;54;20419;-78
2023/12/14 10:21:40;;;;;;;32.10;18.50;;;;;;;;;;2611600;47;21012;-78
2023/12/14 10:24:06;;;;;;;27.27;16.30;;;;;;;;;;2612648;31;20863;-78
2023/12/14 10:26:32;;;;;;;28.70;16.70;;;;;;;;;;2613504;54;20449;-78
2023/12/14 10:28:58;;;;;;;25.60;16.77;;;;;;;;;;2611207;54;20489;-77
2023/12/14 10:31:26;;;;;;;23.47;16.33;;;;;;;;;;2611512;54;20428;-77
2023/12/14 10:33:52;;;;;;;22.77;14.77;;;;;;;;;;2612695;54;20413;-77
2023/12/14 10:36:24;;;;;;;26.77;16.70;;;;;;;;;;2610020;47;20428;-76
2023/12/14 10:38:51;;;;;;;23.70;15.40;;;;;;;;;;2612337;54;20412;-77
2023/12/14 10:41:18;;;;;;;27.50;16.30;;;;;;;;;;2612634;54;20405;-76
2023/12/14 10:43:45;;;;;;;29.03;18.03;;;;;;;;;;2611832;46;20424;-77
2023/12/14 10:46:12;;;;;;;36.80;17.47;;;;;;;;;;2613392;54;20446;-76
2023/12/14 10:48:43;;;;;;;27.60;16.93;;;;;;;;;;2611458;54;20410;-77
2023/12/14 10:51:11;;;;;;;24.30;15.80;;;;;;;;;;2612759;54;20454;-77
2023/12/14 10:53:38;;;;;;;25.27;16.27;;;;;;;;;;2613490;54;20460;-77
2023/12/14 10:56:10;;;;;;;27.40;16.20;;;;;;;;;;2611750;47;20421;-76
2023/12/14 10:58:56;;;;;;;25.60;15.10;;;;;;;;;;2611850;54;20459;-77
2023/12/14 11:01:27;;;;;;;22.63;14.10;;;;;;;;;;2612256;47;20632;-76
2023/12/14 11:03:57;;;;;;;21.97;14.43;;;;;;;;;;2612771;47;20427;-78
2023/12/14 11:06:31;;;;;;;23.50;13.67;;;;;;;;;;2612817;54;20404;-86
2023/12/14 11:09:00;;;;;;;19.83;12.90;;;;;;;;;;2616410;39;20940;-85
2023/12/14 11:11:30;;;;;;;23.30;14.30;;;;;;;;;;2616196;47;20520;-85
2023/12/14 11:13:56;;;;;;;24.10;16.80;;;;;;;;;;2613680;54;20418;-84
2023/12/14 11:16:28;;;;;;;25.27;18.50;;;;;;;;;;2613902;54;20509;-86
2023/12/14 11:19:13;;;;;;;24.63;15.67;;;;;;;;;;2614712;54;20428;-84
2023/12/14 11:21:40;;;;;;;28.10;17.83;;;;;;;;;;2615434;31;20871;-86
2023/12/14 11:24:06;;;;;;;22.97;12.83;;;;;;;;;;2615449;54;20417;-86
2023/12/14 11:26:32;;;;;;;22.03;14.23;;;;;;;;;;2614735;54;20401;-76
2023/12/14 11:28:59;;;;;;;16.60;11.77;;;;;;;;;;2611620;54;20394;-78
2023/12/14 11:31:27;;;;;;;20.80;14.10;;;;;;;;;;2613338;54;20886;-77
2023/12/14 11:33:55;;;;;;;17.43;10.90;;;;;;;;;;2613443;47;20475;-79
2023/12/14 11:36:22;;;;;;;16.27;11.00;;;;;;;;;;2611358;54;20987;-77
2023/12/14 11:38:48;;;;;;;15.47;10.97;;;;;;;;;;2608630;47;20421;-76
2023/12/14 11:41:14;;;;;;;16.17;11.07;;;;;;;;;;2610820;54;20549;-77
2023/12/14 11:43:44;;;;;;;15.77;11.13;;;;;;;;;;2610567;54;20428;-76
2023/12/14 11:46:11;;;;;;;21.47;13.30;;;;;;;;;;2609618;54;20415;-77
2023/12/14 11:48:37;;;;;;;15.00;10.37;;;;;;;;;;2610428;54;20401;-76
2023/12/14 11:51:03;;;;;;;20.17;12.40;;;;;;;;;;2611444;54;20451;-76
2023/12/14 11:53:31;;;;;;;18.80;11.10;;;;;;;;;;2609512;54;20537;-76
2023/12/14 11:55:57;;;;;;;17.23;10.47;;;;;;;;;;2608683;54;20421;-77
2023/12/14 11:58:25;;;;;;;17.70;11.17;;;;;;;;;;2608925;54;20513;-77
2023/12/14 12:00:51;;;;;;;19.57;11.53;;;;;;;;;;2608926;31;20865;-79
2023/12/14 12:03:19;;;;;;;17.87;12.23;;;;;;;;;;2609968;54;20396;-77
2023/12/14 12:05:46;;;;;;;18.27;11.80;;;;;;;;;;2609243;54;20437;-76
2023/12/14 12:08:13;;;;;;;20.63;12.53;;;;;;;;;;2608645;47;20435;-77
2023/12/14 12:10:39;;;;;;;17.93;12.83;;;;;;;;;;2612243;47;21323;-76
2023/12/14 12:13:07;;;;;;;18.77;12.57;;;;;;;;;;2611240;54;20428;-78
2023/12/14 12:15:35;;;;;;;24.83;13.80;;;;;;;;;;2610318;54;20429;-77
2023/12/14 12:18:06;;;;;;;21.83;15.07;;;;;;;;;;2612767;47;20463;-85
2023/12/14 12:20:32;;;;;;;18.57;13.10;;;;;;;;;;2613814;54;20398;-85
2023/12/14 12:22:58;;;;;;;17.77;12.00;;;;;;;;;;2612745;54;20455;-85
2023/12/14 12:25:26;;;;;;;19.20;11.80;;;;;;;;;;2612936;54;20429;-85
2023/12/14 12:27:52;;;;;;;18.10;12.57;;;;;;;;;;2614328;47;21001;-86
2023/12/14 12:30:19;;;;;;;19.20;12.93;;;;;;;;;;2613398;47;20428;-85
2023/12/14 12:32:45;;;;;;;18.57;12.17;;;;;;;;;;2612829;54;20398;-85
2023/12/14 12:35:11;;;;;;;17.27;11.97;;;;;;;;;;2615245;54;20445;-85
2023/12/14 12:37:37;;;;;;;17.10;10.77;;;;;;;;;;2613020;39;20575;-74
2023/12/14 12:40:04;;;;;;;20.57;10.17;;;;;;;;;;2611824;39;20780;-75
2023/12/14 12:42:30;;;;;;;12.63;7.50;;;;;;;;;;2610846;54;20419;-75
2023/12/14 12:44:56;;;;;;;14.70;9.80;;;;;;;;;;2612276;54;20442;-75
2023/12/14 12:47:22;;;;;;;13.90;8.37;;;;;;;;;;2611696;54;20523;-73
2023/12/14 12:49:48;;;;;;;18.43;10.67;;;;;;;;;;2612544;54;20435;-73
2023/12/14 12:52:14;;;;;;;20.73;8.90;;;;;;;;;;2612744;54;20415;-74
2023/12/14 12:54:40;;;;;;;16.73;10.00;;;;;;;;;;2611492;54;20439;-74
2023/12/14 12:57:06;;;;;;;13.60;8.90;;;;;;;;;;2612455;39;20894;-74
2023/12/14 12:59:33;;;;;;;13.57;9.07;;;;;;;;;;2610655;47;20768;-74
2023/12/14 13:01:59;;;;;;;19.03;13.10;;;;;;;;;;2612149;39;20815;-74
2023/12/14 13:04:26;;;;;;;17.03;12.07;;;;;;;;;;2612010;47;20426;-74
2023/12/14 13:06:52;;;;;;;15.73;11.17;;;;;;;;;;2612791;39;20796;-74
2023/12/14 13:09:22;;;;;;;17.37;11.57;;;;;;;;;;2613642;54;20425;-75
2023/12/14 13:11:48;;;;;;;14.83;10.30;;;;;;;;;;2611966;54;20416;-74
2023/12/14 13:14:14;;;;;;;14.87;9.90;;;;;;;;;;2613738;54;20508;-74
2023/12/14 13:16:41;;;;;;;15.93;11.50;;;;;;;;;;2613257;39;20830;-74
2023/12/14 13:19:07;;;;;;;16.13;11.37;;;;;;;;;;2613400;47;20427;-73
2023/12/14 13:21:33;;;;;;;13.60;10.97;;;;;;;;;;2613281;47;20427;-74
2023/12/14 13:24:00;;;;;;;15.33;10.47;;;;;;;;;;2613454;54;20513;-73
2023/12/14 13:26:26;;;;;;;16.87;11.57;;;;;;;;;;2613982;39;20505;-82
2023/12/14 13:28:52;;;;;;;19.07;12.00;;;;;;;;;;2613644;54;20417;-81
2023/12/14 13:31:19;;;;;;;19.77;13.67;;;;;;;;;;2614263;54;20451;-81
2023/12/14 13:33:46;;;;;;;15.93;11.13;;;;;;;;;;2613111;47;20447;-80
2023/12/14 13:36:12;;;;;;;19.13;12.57;;;;;;;;;;2614360;54;20523;-82
2023/12/14 13:38:38;;;;;;;17.33;12.90;;;;;;;;;;2614945;54;20433;-83
2023/12/14 13:41:05;;;;;;;14.00;8.87;;;;;;;;;;2613749;47;20472;-85
2023/12/14 13:43:31;;;;;;;12.27;9.10;;;;;;;;;;2612097;39;20957;-81
2023/12/14 13:45:58;;;;;;;16.33;11.37;;;;;;;;;;2611975;54;20420;-74
2023/12/14 13:48:27;;;;;;;13.30;11.20;;;;;;;;;;2618938;39;20812;-85
2023/12/14 13:50:57;;;;;;;15.20;9.77;;;;;;;;;;2618626;47;20933;-86
2023/12/14 13:53:23;;;;;;;12.10;8.27;;;;;;;;;;2617035;54;20441;-85
2023/12/14 13:55:49;;;;;;;15.03;9.90;;;;;;;;;;2616312;46;20463;-87
2023/12/14 13:58:16;;;;;;;12.33;8.07;;;;;;;;;;2617562;54;20467;-86
2023/12/14 14:00:44;;;;;;;9.43;7.27;;;;;;;;;;2616700;54;20413;-88
2023/12/14 14:03:10;;;;;;;12.07;9.47;;;;;;;;;;2616344;54;20456;-87
2023/12/14 14:05:37;;;;;;;12.40;7.73;;;;;;;;;;2617341;54;20403;-86
2023/12/14 14:08:03;;;;;;;12.30;8.50;;;;;;;;;;2617121;54;20425;-88
2023/12/14 14:10:29;;;;;;;10.40;7.73;;;;;;;;;;2618340;54;20445;-86
2023/12/14 14:12:56;;;;;;;15.03;9.60;;;;;;;;;;2620538;54;20434;-84
2023/12/14 14:15:22;;;;;;;16.47;11.30;;;;;;;;;;2620676;54;20472;-86